sensor_id;sensor_type;location;lat;lon;timestamp;temperature;humidity
22319;DHT22;11327;52.334;9.506;2023-04-25T00:00:36;7.80;99.90
22319;DHT22;11327;52.334;9.506;2023-04-25T00:03:57;7.80;99.90
22319;DHT22;11327;52.334;9.506;2023-04-25T00:07:17;7.80;99.90
22319;DHT22;11327;52.334;9.506;2023-04-25T00:10:38;7.80;99.90
22319;DHT22;11327;52.334;9.506;2023-04-25T00:13:59;7.80;99.90
22319;DHT22;11327;52.334;9.506;2023-04-25T00:17:22;7.80;99.90
22319;DHT22;11327;52.334;9.506;2023-04-25T00:20:44;7.80;99.90
22319;DHT22;11327;52.334;9.506;2023-04-25T00:24:07;7.80;99.90
22319;DHT22;11327;52.334;9.506;2023-04-25T00:27:28;7.70;99.90
22319;DHT22;11327;52.334;9.506;2023-04-25T00:30:48;7.80;99.90
22319;DHT22;11327;52.334;9.506;2023-04-25T00:34:09;7.70;99.90
22319;DHT22;11327;52.334;9.506;2023-04-25T00:37:30;7.70;99.90
22319;DHT22;11327;52.334;9.506;2023-04-25T00:40:51;7.70;99.90
22319;DHT22;11327;52.334;9.506;2023-04-25T00:44:15;7.70;99.90
22319;DHT22;11327;52.334;9.506;2023-04-25T00:47:37;7.60;99.90
22319;DHT22;11327;52.334;9.506;2023-04-25T00:50:59;7.70;99.90
22319;DHT22;11327;52.334;9.506;2023-04-25T00:54:20;7.60;99.90
22319;DHT22;11327;52.334;9.506;2023-04-25T00:57:41;7.60;99.90
22319;DHT22;11327;52.334;9.506;2023-04-25T01:01:02;7.60;99.90
22319;DHT22;11327;52.334;9.506;2023-04-25T01:04:23;7.60;99.90
22319;DHT22;11327;52.334;9.506;2023-04-25T01:07:44;7.60;99.90
22319;DHT22;11327;52.334;9.506;2023-04-25T01:11:06;7.60;99.90
22319;DHT22;11327;52.334;9.506;2023-04-25T01:14:27;7.70;99.90
22319;DHT22;11327;52.334;9.506;2023-04-25T01:17:47;7.60;99.90
22319;DHT22;11327;52.334;9.506;2023-04-25T01:21:10;7.60;99.90
22319;DHT22;11327;52.334;9.506;2023-04-25T01:24:32;7.60;99.90
22319;DHT22;11327;52.334;9.506;2023-04-25T01:27:53;7.60;99.90
22319;DHT22;11327;52.334;9.506;2023-04-25T01:31:15;7.60;99.90
22319;DHT22;11327;52.334;9.506;2023-04-25T01:34:36;7.60;99.90
22319;DHT22;11327;52.334;9.506;2023-04-25T01:37:57;7.70;99.90
22319;DHT22;11327;52.334;9.506;2023-04-25T01:41:18;7.60;99.90
22319;DHT22;11327;52.334;9.506;2023-04-25T01:44:39;7.60;99.90
22319;DHT22;11327;52.334;9.506;2023-04-25T01:48:00;7.60;99.90
22319;DHT22;11327;52.334;9.506;2023-04-25T01:51:21;7.60;99.90
22319;DHT22;11327;52.334;9.506;2023-04-25T01:54:41;7.60;99.90
22319;DHT22;11327;52.334;9.506;2023-04-25T01:58:04;7.60;99.90
22319;DHT22;11327;52.334;9.506;2023-04-25T02:01:33;7.60;99.90
22319;DHT22;11327;52.334;9.506;2023-04-25T02:04:54;7.60;99.90
22319;DHT22;11327;52.334;9.506;2023-04-25T02:08:17;7.60;99.90
22319;DHT22;11327;52.334;9.506;2023-04-25T02:11:38;7.50;99.90
22319;DHT22;11327;52.334;9.506;2023-04-25T02:14:59;7.40;99.90
22319;DHT22;11327;52.334;9.506;2023-04-25T02:18:20;7.50;99.90
22319;DHT22;11327;52.334;9.506;2023-04-25T02:21:41;7.40;99.90
22319;DHT22;11327;52.334;9.506;2023-04-25T02:25:02;7.40;99.90
22319;DHT22;11327;52.334;9.506;2023-04-25T02:28:25;7.30;99.90
22319;DHT22;11327;52.334;9.506;2023-04-25T02:31:46;7.20;99.90
22319;DHT22;11327;52.334;9.506;2023-04-25T02:35:07;7.20;99.90
22319;DHT22;11327;52.334;9.506;2023-04-25T02:38:28;7.20;99.90
22319;DHT22;11327;52.334;9.506;2023-04-25T02:41:49;7.20;99.90
22319;DHT22;11327;52.334;9.506;2023-04-25T02:45:10;7.20;99.90
22319;DHT22;11327;52.334;9.506;2023-04-25T02:48:31;7.20;99.90
22319;DHT22;11327;52.334;9.506;2023-04-25T02:51:51;7.20;99.90
22319;DHT22;11327;52.334;9.506;2023-04-25T02:55:13;7.20;99.90
22319;DHT22;11327;52.334;9.506;2023-04-25T02:58:34;7.30;99.90
22319;DHT22;11327;52.334;9.506;2023-04-25T03:01:55;7.30;99.90
22319;DHT22;11327;52.334;9.506;2023-04-25T03:05:16;7.30;99.90
22319;DHT22;11327;52.334;9.506;2023-04-25T03:08:37;7.30;99.90
22319;DHT22;11327;52.334;9.506;2023-04-25T03:11:57;7.20;99.90
22319;DHT22;11327;52.334;9.506;2023-04-25T03:15:18;7.20;99.90
22319;DHT22;11327;52.334;9.506;2023-04-25T03:18:39;7.20;99.90
22319;DHT22;11327;52.334;9.506;2023-04-25T03:22:00;7.20;99.90
22319;DHT22;11327;52.334;9.506;2023-04-25T03:25:20;7.20;99.90
22319;DHT22;11327;52.334;9.506;2023-04-25T03:28:41;7.10;99.90
22319;DHT22;11327;52.334;9.506;2023-04-25T03:32:02;7.20;99.90
22319;DHT22;11327;52.334;9.506;2023-04-25T03:35:23;7.10;99.90
22319;DHT22;11327;52.334;9.506;2023-04-25T03:38:44;7.10;99.90
22319;DHT22;11327;52.334;9.506;2023-04-25T03:42:04;7.10;99.90
22319;DHT22;11327;52.334;9.506;2023-04-25T03:45:25;7.10;99.90
22319;DHT22;11327;52.334;9.506;2023-04-25T03:48:46;7.00;99.90
22319;DHT22;11327;52.334;9.506;2023-04-25T03:52:07;7.00;99.90
22319;DHT22;11327;52.334;9.506;2023-04-25T03:55:27;7.00;99.90
22319;DHT22;11327;52.334;9.506;2023-04-25T03:58:48;7.00;99.90
22319;DHT22;11327;52.334;9.506;2023-04-25T04:02:09;7.00;99.90
22319;DHT22;11327;52.334;9.506;2023-04-25T04:05:30;7.00;99.90
22319;DHT22;11327;52.334;9.506;2023-04-25T04:08:51;7.10;99.90
22319;DHT22;11327;52.334;9.506;2023-04-25T04:12:12;7.00;99.90
22319;DHT22;11327;52.334;9.506;2023-04-25T04:15:32;7.10;99.90
22319;DHT22;11327;52.334;9.506;2023-04-25T04:18:53;7.10;99.90
22319;DHT22;11327;52.334;9.506;2023-04-25T04:22:14;7.00;99.90
22319;DHT22;11327;52.334;9.506;2023-04-25T04:25:35;7.10;99.90
22319;DHT22;11327;52.334;9.506;2023-04-25T04:28:56;7.10;99.90
22319;DHT22;11327;52.334;9.506;2023-04-25T04:32:16;7.10;99.90
22319;DHT22;11327;52.334;9.506;2023-04-25T04:35:37;7.10;99.90
22319;DHT22;11327;52.334;9.506;2023-04-25T04:38:58;7.10;99.90
22319;DHT22;11327;52.334;9.506;2023-04-25T04:42:19;7.00;99.90
22319;DHT22;11327;52.334;9.506;2023-04-25T04:45:39;7.10;99.90
22319;DHT22;11327;52.334;9.506;2023-04-25T04:49:00;7.00;99.90
22319;DHT22;11327;52.334;9.506;2023-04-25T04:52:21;7.10;99.90
22319;DHT22;11327;52.334;9.506;2023-04-25T04:55:42;7.10;99.90
22319;DHT22;11327;52.334;9.506;2023-04-25T04:59:03;7.10;99.90
22319;DHT22;11327;52.334;9.506;2023-04-25T05:02:24;7.10;99.90
22319;DHT22;11327;52.334;9.506;2023-04-25T05:05:44;7.00;99.90
22319;DHT22;11327;52.334;9.506;2023-04-25T05:09:06;7.00;99.90
22319;DHT22;11327;52.334;9.506;2023-04-25T05:12:26;7.00;99.90
22319;DHT22;11327;52.334;9.506;2023-04-25T05:15:47;7.10;99.90
22319;DHT22;11327;52.334;9.506;2023-04-25T05:19:08;7.00;99.90
22319;DHT22;11327;52.334;9.506;2023-04-25T05:22:29;7.00;99.90
22319;DHT22;11327;52.334;9.506;2023-04-25T05:25:49;7.10;99.90
22319;DHT22;11327;52.334;9.506;2023-04-25T05:29:10;7.10;99.90
22319;DHT22;11327;52.334;9.506;2023-04-25T05:32:31;7.20;99.90
22319;DHT22;11327;52.334;9.506;2023-04-25T05:35:52;7.30;99.90
22319;DHT22;11327;52.334;9.506;2023-04-25T05:39:12;7.10;99.90
22319;DHT22;11327;52.334;9.506;2023-04-25T05:42:34;7.10;99.90
22319;DHT22;11327;52.334;9.506;2023-04-25T05:45:54;7.10;99.90
22319;DHT22;11327;52.334;9.506;2023-04-25T05:49:15;7.00;99.90
22319;DHT22;11327;52.334;9.506;2023-04-25T05:52:36;7.10;99.90
22319;DHT22;11327;52.334;9.506;2023-04-25T05:55:56;7.10;99.90
22319;DHT22;11327;52.334;9.506;2023-04-25T05:59:17;7.20;99.90
22319;DHT22;11327;52.334;9.506;2023-04-25T06:02:38;7.10;99.90
22319;DHT22;11327;52.334;9.506;2023-04-25T06:05:58;7.10;99.90
22319;DHT22;11327;52.334;9.506;2023-04-25T06:09:19;7.20;99.90
22319;DHT22;11327;52.334;9.506;2023-04-25T06:12:40;7.20;99.90
22319;DHT22;11327;52.334;9.506;2023-04-25T06:16:01;7.20;99.90
22319;DHT22;11327;52.334;9.506;2023-04-25T06:19:22;7.20;99.90
22319;DHT22;11327;52.334;9.506;2023-04-25T06:22:42;7.30;99.90
22319;DHT22;11327;52.334;9.506;2023-04-25T06:26:03;7.30;99.90
22319;DHT22;11327;52.334;9.506;2023-04-25T06:29:24;7.40;99.90
22319;DHT22;11327;52.334;9.506;2023-04-25T06:32:45;7.40;99.90
22319;DHT22;11327;52.334;9.506;2023-04-25T06:36:06;7.50;99.90
22319;DHT22;11327;52.334;9.506;2023-04-25T06:39:26;7.50;99.90
22319;DHT22;11327;52.334;9.506;2023-04-25T06:42:47;7.50;99.90
22319;DHT22;11327;52.334;9.506;2023-04-25T06:46:08;7.50;99.90
22319;DHT22;11327;52.334;9.506;2023-04-25T06:49:29;7.60;99.90
22319;DHT22;11327;52.334;9.506;2023-04-25T06:52:50;7.70;99.90
22319;DHT22;11327;52.334;9.506;2023-04-25T06:56:10;7.80;99.90
22319;DHT22;11327;52.334;9.506;2023-04-25T06:59:31;7.80;99.90
22319;DHT22;11327;52.334;9.506;2023-04-25T07:02:53;7.80;99.90
22319;DHT22;11327;52.334;9.506;2023-04-25T07:06:13;7.80;99.90
22319;DHT22;11327;52.334;9.506;2023-04-25T07:09:34;7.70;99.90
22319;DHT22;11327;52.334;9.506;2023-04-25T07:12:55;7.80;99.90
22319;DHT22;11327;52.334;9.506;2023-04-25T07:16:16;7.90;99.90
22319;DHT22;11327;52.334;9.506;2023-04-25T07:19:36;7.90;99.90
22319;DHT22;11327;52.334;9.506;2023-04-25T07:22:59;7.80;99.90
22319;DHT22;11327;52.334;9.506;2023-04-25T07:26:20;7.90;99.90
22319;DHT22;11327;52.334;9.506;2023-04-25T07:29:40;7.80;99.90
22319;DHT22;11327;52.334;9.506;2023-04-25T07:33:02;7.80;99.90
22319;DHT22;11327;52.334;9.506;2023-04-25T07:36:23;7.80;99.90
22319;DHT22;11327;52.334;9.506;2023-04-25T07:39:44;7.80;99.90
22319;DHT22;11327;52.334;9.506;2023-04-25T07:43:07;7.90;99.90
22319;DHT22;11327;52.334;9.506;2023-04-25T07:46:27;8.00;99.90
22319;DHT22;11327;52.334;9.506;2023-04-25T07:49:48;7.90;99.90
22319;DHT22;11327;52.334;9.506;2023-04-25T07:53:09;7.90;99.90
22319;DHT22;11327;52.334;9.506;2023-04-25T07:56:30;7.80;99.90
22319;DHT22;11327;52.334;9.506;2023-04-25T07:59:51;7.90;99.90
22319;DHT22;11327;52.334;9.506;2023-04-25T08:03:12;7.90;99.90
22319;DHT22;11327;52.334;9.506;2023-04-25T08:06:33;8.00;99.90
22319;DHT22;11327;52.334;9.506;2023-04-25T08:09:54;8.30;99.90
22319;DHT22;11327;52.334;9.506;2023-04-25T08:13:15;8.50;99.90
22319;DHT22;11327;52.334;9.506;2023-04-25T08:16:35;8.60;99.90
22319;DHT22;11327;52.334;9.506;2023-04-25T08:19:56;8.50;99.90
22319;DHT22;11327;52.334;9.506;2023-04-25T08:23:17;8.60;99.90
22319;DHT22;11327;52.334;9.506;2023-04-25T08:26:38;8.80;99.90
22319;DHT22;11327;52.334;9.506;2023-04-25T08:29:59;9.20;99.90
22319;DHT22;11327;52.334;9.506;2023-04-25T08:33:20;9.50;99.90
22319;DHT22;11327;52.334;9.506;2023-04-25T08:36:41;9.50;99.90
22319;DHT22;11327;52.334;9.506;2023-04-25T08:40:01;9.20;99.90
22319;DHT22;11327;52.334;9.506;2023-04-25T08:43:24;9.00;99.90
22319;DHT22;11327;52.334;9.506;2023-04-25T08:46:46;8.70;99.90
22319;DHT22;11327;52.334;9.506;2023-04-25T08:50:09;8.70;99.90
22319;DHT22;11327;52.334;9.506;2023-04-25T08:53:32;8.70;99.90
22319;DHT22;11327;52.334;9.506;2023-04-25T08:56:54;8.60;99.90
22319;DHT22;11327;52.334;9.506;2023-04-25T09:00:15;8.50;99.90
22319;DHT22;11327;52.334;9.506;2023-04-25T09:03:37;8.50;99.90
22319;DHT22;11327;52.334;9.506;2023-04-25T09:06:58;8.70;99.90
22319;DHT22;11327;52.334;9.506;2023-04-25T09:10:19;8.80;99.90
22319;DHT22;11327;52.334;9.506;2023-04-25T09:13:40;9.00;99.90
22319;DHT22;11327;52.334;9.506;2023-04-25T09:17:03;9.00;99.90
22319;DHT22;11327;52.334;9.506;2023-04-25T09:20:25;9.30;99.90
22319;DHT22;11327;52.334;9.506;2023-04-25T09:23:49;9.70;99.90
22319;DHT22;11327;52.334;9.506;2023-04-25T09:27:16;10.10;99.90
22319;DHT22;11327;52.334;9.506;2023-04-25T09:30:36;10.30;99.90
22319;DHT22;11327;52.334;9.506;2023-04-25T09:34:00;10.40;99.90
22319;DHT22;11327;52.334;9.506;2023-04-25T09:37:24;10.50;99.90
22319;DHT22;11327;52.334;9.506;2023-04-25T09:40:46;10.70;99.90
22319;DHT22;11327;52.334;9.506;2023-04-25T09:44:07;10.50;99.90
22319;DHT22;11327;52.334;9.506;2023-04-25T09:47:28;10.60;99.90
22319;DHT22;11327;52.334;9.506;2023-04-25T09:51:10;10.80;99.90
22319;DHT22;11327;52.334;9.506;2023-04-25T09:54:31;10.80;99.90
22319;DHT22;11327;52.334;9.506;2023-04-25T09:57:52;10.90;99.90
22319;DHT22;11327;52.334;9.506;2023-04-25T10:01:14;10.70;99.90
22319;DHT22;11327;52.334;9.506;2023-04-25T10:04:37;10.40;99.90
22319;DHT22;11327;52.334;9.506;2023-04-25T10:08:00;10.10;99.90
22319;DHT22;11327;52.334;9.506;2023-04-25T10:11:24;9.80;99.90
22319;DHT22;11327;52.334;9.506;2023-04-25T10:14:45;9.80;99.90
22319;DHT22;11327;52.334;9.506;2023-04-25T10:18:06;9.60;99.90
22319;DHT22;11327;52.334;9.506;2023-04-25T10:21:28;9.50;99.90
22319;DHT22;11327;52.334;9.506;2023-04-25T10:24:51;9.40;99.90
22319;DHT22;11327;52.334;9.506;2023-04-25T10:28:13;9.50;99.90
22319;DHT22;11327;52.334;9.506;2023-04-25T10:31:37;9.50;99.90
22319;DHT22;11327;52.334;9.506;2023-04-25T10:35:10;9.50;99.90
22319;DHT22;11327;52.334;9.506;2023-04-25T10:38:31;9.50;99.90
22319;DHT22;11327;52.334;9.506;2023-04-25T10:41:58;9.50;99.90
22319;DHT22;11327;52.334;9.506;2023-04-25T10:45:19;9.50;99.90
22319;DHT22;11327;52.334;9.506;2023-04-25T10:48:46;9.50;99.90
22319;DHT22;11327;52.334;9.506;2023-04-25T10:52:18;9.50;99.90
22319;DHT22;11327;52.334;9.506;2023-04-25T10:55:49;9.40;99.90
22319;DHT22;11327;52.334;9.506;2023-04-25T10:59:15;9.30;99.90
22319;DHT22;11327;52.334;9.506;2023-04-25T11:02:47;9.50;99.90
22319;DHT22;11327;52.334;9.506;2023-04-25T11:09:34;9.60;99.90
22319;DHT22;11327;52.334;9.506;2023-04-25T11:12:56;9.60;99.90
22319;DHT22;11327;52.334;9.506;2023-04-25T11:16:17;9.60;99.90
22319;DHT22;11327;52.334;9.506;2023-04-25T11:19:38;9.60;99.90
22319;DHT22;11327;52.334;9.506;2023-04-25T11:22:58;9.50;99.90
22319;DHT22;11327;52.334;9.506;2023-04-25T11:26:20;9.50;99.90
22319;DHT22;11327;52.334;9.506;2023-04-25T11:29:41;9.30;99.90
22319;DHT22;11327;52.334;9.506;2023-04-25T11:33:01;9.20;99.90
22319;DHT22;11327;52.334;9.506;2023-04-25T11:36:24;8.70;99.90
22319;DHT22;11327;52.334;9.506;2023-04-25T11:39:46;8.50;99.90
22319;DHT22;11327;52.334;9.506;2023-04-25T11:43:09;8.40;99.90
22319;DHT22;11327;52.334;9.506;2023-04-25T11:46:30;8.30;99.90
22319;DHT22;11327;52.334;9.506;2023-04-25T11:49:53;8.40;99.90
22319;DHT22;11327;52.334;9.506;2023-04-25T11:53:14;8.70;99.90
22319;DHT22;11327;52.334;9.506;2023-04-25T11:56:35;8.70;99.90
22319;DHT22;11327;52.334;9.506;2023-04-25T11:59:55;8.80;99.90
22319;DHT22;11327;52.334;9.506;2023-04-25T12:03:18;8.90;99.90
22319;DHT22;11327;52.334;9.506;2023-04-25T12:06:40;9.00;99.90
22319;DHT22;11327;52.334;9.506;2023-04-25T12:10:08;9.30;99.90
22319;DHT22;11327;52.334;9.506;2023-04-25T12:13:31;9.80;99.90
22319;DHT22;11327;52.334;9.506;2023-04-25T12:16:52;10.30;99.90
22319;DHT22;11327;52.334;9.506;2023-04-25T12:20:24;10.80;99.90
22319;DHT22;11327;52.334;9.506;2023-04-25T12:23:44;11.10;99.90
22319;DHT22;11327;52.334;9.506;2023-04-25T12:27:06;11.30;99.90
22319;DHT22;11327;52.334;9.506;2023-04-25T12:30:28;11.30;99.90
22319;DHT22;11327;52.334;9.506;2023-04-25T12:33:49;11.10;99.90
22319;DHT22;11327;52.334;9.506;2023-04-25T12:37:10;10.90;99.90
22319;DHT22;11327;52.334;9.506;2023-04-25T12:40:32;10.70;99.90
22319;DHT22;11327;52.334;9.506;2023-04-25T12:43:53;10.30;99.90
22319;DHT22;11327;52.334;9.506;2023-04-25T12:47:14;9.80;99.90
22319;DHT22;11327;52.334;9.506;2023-04-25T12:50:35;9.60;99.90
22319;DHT22;11327;52.334;9.506;2023-04-25T12:54:01;9.40;99.90
22319;DHT22;11327;52.334;9.506;2023-04-25T12:57:22;9.20;99.90
22319;DHT22;11327;52.334;9.506;2023-04-25T13:00:43;9.10;99.90
22319;DHT22;11327;52.334;9.506;2023-04-25T13:04:04;8.80;99.90
22319;DHT22;11327;52.334;9.506;2023-04-25T13:07:25;8.50;99.90
22319;DHT22;11327;52.334;9.506;2023-04-25T13:10:47;8.50;99.90
22319;DHT22;11327;52.334;9.506;2023-04-25T13:14:08;8.50;99.90
22319;DHT22;11327;52.334;9.506;2023-04-25T13:17:29;8.60;99.90
22319;DHT22;11327;52.334;9.506;2023-04-25T13:20:50;8.70;99.90
22319;DHT22;11327;52.334;9.506;2023-04-25T13:24:11;8.80;99.90
22319;DHT22;11327;52.334;9.506;2023-04-25T13:27:32;9.00;99.90
22319;DHT22;11327;52.334;9.506;2023-04-25T13:30:54;9.50;99.90
22319;DHT22;11327;52.334;9.506;2023-04-25T13:34:15;10.10;99.90
22319;DHT22;11327;52.334;9.506;2023-04-25T13:37:37;10.60;99.90
22319;DHT22;11327;52.334;9.506;2023-04-25T13:40:58;11.00;99.90
22319;DHT22;11327;52.334;9.506;2023-04-25T13:44:18;11.30;99.90
22319;DHT22;11327;52.334;9.506;2023-04-25T13:47:39;11.00;99.90
22319;DHT22;11327;52.334;9.506;2023-04-25T13:51:00;10.90;99.90
22319;DHT22;11327;52.334;9.506;2023-04-25T13:54:21;10.70;99.90
22319;DHT22;11327;52.334;9.506;2023-04-25T13:57:42;10.50;99.90
22319;DHT22;11327;52.334;9.506;2023-04-25T14:01:02;10.40;99.90
22319;DHT22;11327;52.334;9.506;2023-04-25T14:04:24;10.10;99.90
22319;DHT22;11327;52.334;9.506;2023-04-25T14:07:45;9.70;99.90
22319;DHT22;11327;52.334;9.506;2023-04-25T14:11:06;9.50;99.90
22319;DHT22;11327;52.334;9.506;2023-04-25T14:14:26;9.30;99.90
22319;DHT22;11327;52.334;9.506;2023-04-25T14:17:47;9.40;99.90
22319;DHT22;11327;52.334;9.506;2023-04-25T14:21:08;9.40;99.90
22319;DHT22;11327;52.334;9.506;2023-04-25T14:24:30;9.80;99.90
22319;DHT22;11327;52.334;9.506;2023-04-25T14:27:51;10.20;99.90
22319;DHT22;11327;52.334;9.506;2023-04-25T14:31:11;10.60;99.90
22319;DHT22;11327;52.334;9.506;2023-04-25T14:34:32;11.00;99.90
22319;DHT22;11327;52.334;9.506;2023-04-25T14:37:53;11.40;99.90
22319;DHT22;11327;52.334;9.506;2023-04-25T14:41:14;11.80;99.90
22319;DHT22;11327;52.334;9.506;2023-04-25T14:44:35;11.60;99.90
22319;DHT22;11327;52.334;9.506;2023-04-25T14:47:56;11.70;99.90
22319;DHT22;11327;52.334;9.506;2023-04-25T14:51:16;11.40;99.90
22319;DHT22;11327;52.334;9.506;2023-04-25T14:54:37;11.20;99.90
22319;DHT22;11327;52.334;9.506;2023-04-25T14:57:58;11.00;99.90
22319;DHT22;11327;52.334;9.506;2023-04-25T15:01:18;10.70;99.90
22319;DHT22;11327;52.334;9.506;2023-04-25T15:04:41;10.60;99.90
22319;DHT22;11327;52.334;9.506;2023-04-25T15:08:02;10.40;99.90
22319;DHT22;11327;52.334;9.506;2023-04-25T15:11:22;10.10;99.90
22319;DHT22;11327;52.334;9.506;2023-04-25T15:14:43;10.20;99.90
22319;DHT22;11327;52.334;9.506;2023-04-25T15:18:04;10.20;99.90
22319;DHT22;11327;52.334;9.506;2023-04-25T15:21:25;10.30;99.90
22319;DHT22;11327;52.334;9.506;2023-04-25T15:24:46;10.60;99.90
22319;DHT22;11327;52.334;9.506;2023-04-25T15:28:07;10.80;99.90
22319;DHT22;11327;52.334;9.506;2023-04-25T15:31:28;10.70;99.90
22319;DHT22;11327;52.334;9.506;2023-04-25T15:34:48;10.50;99.90
22319;DHT22;11327;52.334;9.506;2023-04-25T15:38:10;10.40;99.90
22319;DHT22;11327;52.334;9.506;2023-04-25T15:41:31;10.30;99.90
22319;DHT22;11327;52.334;9.506;2023-04-25T15:44:52;10.30;99.90
22319;DHT22;11327;52.334;9.506;2023-04-25T15:48:13;10.30;99.90
22319;DHT22;11327;52.334;9.506;2023-04-25T15:51:33;10.10;99.90
22319;DHT22;11327;52.334;9.506;2023-04-25T15:54:54;10.00;99.90
22319;DHT22;11327;52.334;9.506;2023-04-25T15:58:15;9.90;99.90
22319;DHT22;11327;52.334;9.506;2023-04-25T16:01:36;9.60;99.90
22319;DHT22;11327;52.334;9.506;2023-04-25T16:04:57;9.50;99.90
22319;DHT22;11327;52.334;9.506;2023-04-25T16:08:18;9.50;99.90
22319;DHT22;11327;52.334;9.506;2023-04-25T16:11:38;9.50;99.90
22319;DHT22;11327;52.334;9.506;2023-04-25T16:14:59;9.70;99.90
22319;DHT22;11327;52.334;9.506;2023-04-25T16:18:20;9.80;99.90
22319;DHT22;11327;52.334;9.506;2023-04-25T16:21:42;9.80;99.90
22319;DHT22;11327;52.334;9.506;2023-04-25T16:25:03;9.80;99.90
22319;DHT22;11327;52.334;9.506;2023-04-25T16:28:25;9.70;99.90
22319;DHT22;11327;52.334;9.506;2023-04-25T16:31:45;9.70;99.90
22319;DHT22;11327;52.334;9.506;2023-04-25T16:35:07;9.80;99.90
22319;DHT22;11327;52.334;9.506;2023-04-25T16:38:28;9.70;99.90
22319;DHT22;11327;52.334;9.506;2023-04-25T16:41:48;9.60;99.90
22319;DHT22;11327;52.334;9.506;2023-04-25T16:45:10;9.40;99.90
22319;DHT22;11327;52.334;9.506;2023-04-25T16:48:31;9.20;99.90
22319;DHT22;11327;52.334;9.506;2023-04-25T16:51:51;9.20;99.90
22319;DHT22;11327;52.334;9.506;2023-04-25T16:55:12;9.20;99.90
22319;DHT22;11327;52.334;9.506;2023-04-25T16:58:35;9.10;99.90
22319;DHT22;11327;52.334;9.506;2023-04-25T17:01:58;8.90;99.90
22319;DHT22;11327;52.334;9.506;2023-04-25T17:05:18;8.70;99.90
22319;DHT22;11327;52.334;9.506;2023-04-25T17:08:40;8.60;99.90
22319;DHT22;11327;52.334;9.506;2023-04-25T17:12:02;8.50;99.90
22319;DHT22;11327;52.334;9.506;2023-04-25T17:15:23;8.50;99.90
22319;DHT22;11327;52.334;9.506;2023-04-25T17:18:44;8.40;99.90
22319;DHT22;11327;52.334;9.506;2023-04-25T17:22:05;8.50;99.90
22319;DHT22;11327;52.334;9.506;2023-04-25T17:25:26;8.40;99.90
22319;DHT22;11327;52.334;9.506;2023-04-25T17:28:47;8.40;99.90
22319;DHT22;11327;52.334;9.506;2023-04-25T17:32:09;8.30;99.90
22319;DHT22;11327;52.334;9.506;2023-04-25T17:35:29;8.30;99.90
22319;DHT22;11327;52.334;9.506;2023-04-25T17:38:50;8.10;99.90
22319;DHT22;11327;52.334;9.506;2023-04-25T17:42:11;8.10;99.90
22319;DHT22;11327;52.334;9.506;2023-04-25T17:45:32;8.10;99.90
22319;DHT22;11327;52.334;9.506;2023-04-25T17:48:55;8.00;99.90
22319;DHT22;11327;52.334;9.506;2023-04-25T17:52:17;8.00;99.90
22319;DHT22;11327;52.334;9.506;2023-04-25T17:55:38;8.00;99.90
22319;DHT22;11327;52.334;9.506;2023-04-25T17:58:59;8.00;99.90
22319;DHT22;11327;52.334;9.506;2023-04-25T18:02:20;8.00;99.90
22319;DHT22;11327;52.334;9.506;2023-04-25T18:05:41;7.90;99.90
22319;DHT22;11327;52.334;9.506;2023-04-25T18:09:02;7.90;99.90
22319;DHT22;11327;52.334;9.506;2023-04-25T18:12:25;7.90;99.90
22319;DHT22;11327;52.334;9.506;2023-04-25T18:15:46;7.90;99.90
22319;DHT22;11327;52.334;9.506;2023-04-25T18:19:08;7.80;99.90
22319;DHT22;11327;52.334;9.506;2023-04-25T18:22:35;7.60;99.90
22319;DHT22;11327;52.334;9.506;2023-04-25T18:25:56;7.70;99.90
22319;DHT22;11327;52.334;9.506;2023-04-25T18:29:17;7.70;99.90
22319;DHT22;11327;52.334;9.506;2023-04-25T18:32:38;7.60;99.90
22319;DHT22;11327;52.334;9.506;2023-04-25T18:35:59;7.50;99.90
22319;DHT22;11327;52.334;9.506;2023-04-25T18:39:20;7.50;99.90
22319;DHT22;11327;52.334;9.506;2023-04-25T18:42:41;7.40;99.90
22319;DHT22;11327;52.334;9.506;2023-04-25T18:46:02;7.40;99.90
22319;DHT22;11327;52.334;9.506;2023-04-25T18:49:23;7.40;99.90
22319;DHT22;11327;52.334;9.506;2023-04-25T18:52:44;7.30;99.90
22319;DHT22;11327;52.334;9.506;2023-04-25T18:56:04;7.40;99.90
22319;DHT22;11327;52.334;9.506;2023-04-25T18:59:25;7.40;99.90
22319;DHT22;11327;52.334;9.506;2023-04-25T19:02:46;7.40;99.90
22319;DHT22;11327;52.334;9.506;2023-04-25T19:06:07;7.40;99.90
22319;DHT22;11327;52.334;9.506;2023-04-25T19:09:28;7.50;99.90
22319;DHT22;11327;52.334;9.506;2023-04-25T19:12:48;7.30;99.90
22319;DHT22;11327;52.334;9.506;2023-04-25T19:16:09;7.30;99.90
22319;DHT22;11327;52.334;9.506;2023-04-25T19:19:30;7.30;99.90
22319;DHT22;11327;52.334;9.506;2023-04-25T19:22:51;7.30;99.90
22319;DHT22;11327;52.334;9.506;2023-04-25T19:26:12;7.20;99.90
22319;DHT22;11327;52.334;9.506;2023-04-25T19:29:33;7.30;99.90
22319;DHT22;11327;52.334;9.506;2023-04-25T19:32:54;7.20;99.90
22319;DHT22;11327;52.334;9.506;2023-04-25T19:36:18;7.20;99.90
22319;DHT22;11327;52.334;9.506;2023-04-25T19:39:40;7.10;99.90
22319;DHT22;11327;52.334;9.506;2023-04-25T19:43:01;7.10;99.90
22319;DHT22;11327;52.334;9.506;2023-04-25T19:46:22;7.10;99.90
22319;DHT22;11327;52.334;9.506;2023-04-25T19:49:43;7.10;99.90
22319;DHT22;11327;52.334;9.506;2023-04-25T19:53:03;7.00;99.90
22319;DHT22;11327;52.334;9.506;2023-04-25T19:56:24;7.00;99.90
22319;DHT22;11327;52.334;9.506;2023-04-25T19:59:45;6.90;99.90
22319;DHT22;11327;52.334;9.506;2023-04-25T20:03:07;6.90;99.90
22319;DHT22;11327;52.334;9.506;2023-04-25T20:06:29;6.90;99.90
22319;DHT22;11327;52.334;9.506;2023-04-25T20:09:52;6.80;99.90
22319;DHT22;11327;52.334;9.506;2023-04-25T20:13:13;6.70;99.90
22319;DHT22;11327;52.334;9.506;2023-04-25T20:16:33;6.80;99.90
22319;DHT22;11327;52.334;9.506;2023-04-25T20:19:54;6.70;99.90
22319;DHT22;11327;52.334;9.506;2023-04-25T20:23:15;6.70;99.90
22319;DHT22;11327;52.334;9.506;2023-04-25T20:26:36;6.70;99.90
22319;DHT22;11327;52.334;9.506;2023-04-25T20:29:57;6.70;99.90
22319;DHT22;11327;52.334;9.506;2023-04-25T20:33:20;6.60;99.90
22319;DHT22;11327;52.334;9.506;2023-04-25T20:36:41;6.70;99.90
22319;DHT22;11327;52.334;9.506;2023-04-25T20:40:04;6.50;99.90
22319;DHT22;11327;52.334;9.506;2023-04-25T20:43:25;6.50;99.90
22319;DHT22;11327;52.334;9.506;2023-04-25T20:46:46;6.50;99.90
22319;DHT22;11327;52.334;9.506;2023-04-25T20:50:07;6.40;99.90
22319;DHT22;11327;52.334;9.506;2023-04-25T20:53:28;6.30;99.90
22319;DHT22;11327;52.334;9.506;2023-04-25T20:56:49;6.30;99.90
22319;DHT22;11327;52.334;9.506;2023-04-25T21:00:11;6.10;99.90
22319;DHT22;11327;52.334;9.506;2023-04-25T21:03:39;6.10;99.90
22319;DHT22;11327;52.334;9.506;2023-04-25T21:07:00;6.00;99.90
22319;DHT22;11327;52.334;9.506;2023-04-25T21:10:21;6.10;99.90
22319;DHT22;11327;52.334;9.506;2023-04-25T21:13:42;6.00;99.90
22319;DHT22;11327;52.334;9.506;2023-04-25T21:17:03;6.00;99.90
22319;DHT22;11327;52.334;9.506;2023-04-25T21:20:23;5.90;99.90
22319;DHT22;11327;52.334;9.506;2023-04-25T21:23:44;5.80;99.90
22319;DHT22;11327;52.334;9.506;2023-04-25T21:27:05;5.80;99.90
22319;DHT22;11327;52.334;9.506;2023-04-25T21:30:26;5.80;99.90
22319;DHT22;11327;52.334;9.506;2023-04-25T21:33:47;5.80;99.90